sensor_id;sensor_type;location;lat;lon;timestamp;P1;durP1;ratioP1;P2;durP2;ratioP2
18114;SDS011;9184;54.390;18.620;2023-11-21T00:00:15;13.93;;;7.87;;
18114;SDS011;9184;54.390;18.620;2023-11-21T00:00:48;13.63;;;6.93;;
18114;SDS011;9184;54.390;18.620;2023-11-21T00:01:19;15.53;;;8.53;;
18114;SDS011;9184;54.390;18.620;2023-11-21T00:01:50;13.03;;;7.17;;
18114;SDS011;9184;54.390;18.620;2023-11-21T00:02:20;12.10;;;8.43;;
18114;SDS011;9184;54.390;18.620;2023-11-21T00:02:51;12.30;;;7.80;;
18114;SDS011;9184;54.390;18.620;2023-11-21T00:03:22;15.23;;;8.30;;
18114;SDS011;9184;54.390;18.620;2023-11-21T00:03:53;13.70;;;8.00;;
18114;SDS011;9184;54.390;18.620;2023-11-21T00:04:25;13.73;;;7.50;;
18114;SDS011;9184;54.390;18.620;2023-11-21T00:04:57;15.60;;;7.87;;
18114;SDS011;9184;54.390;18.620;2023-11-21T00:05:28;14.80;;;8.27;;
18114;SDS011;9184;54.390;18.620;2023-11-21T00:06:02;12.97;;;8.07;;
18114;SDS011;9184;54.390;18.620;2023-11-21T00:06:32;14.43;;;7.67;;
18114;SDS011;9184;54.390;18.620;2023-11-21T00:07:03;17.60;;;7.97;;
18114;SDS011;9184;54.390;18.620;2023-11-21T00:07:33;12.67;;;7.50;;
18114;SDS011;9184;54.390;18.620;2023-11-21T00:08:05;16.97;;;7.47;;
18114;SDS011;9184;54.390;18.620;2023-11-21T00:08:35;12.70;;;8.20;;
18114;SDS011;9184;54.390;18.620;2023-11-21T00:09:06;11.30;;;7.13;;
18114;SDS011;9184;54.390;18.620;2023-11-21T00:09:38;13.87;;;7.87;;
18114;SDS011;9184;54.390;18.620;2023-11-21T00:10:12;12.63;;;7.80;;
18114;SDS011;9184;54.390;18.620;2023-11-21T00:10:44;10.27;;;7.33;;
18114;SDS011;9184;54.390;18.620;2023-11-21T00:11:14;14.93;;;8.10;;
18114;SDS011;9184;54.390;18.620;2023-11-21T00:11:45;15.33;;;8.13;;
18114;SDS011;9184;54.390;18.620;2023-11-21T00:12:16;11.73;;;7.90;;
18114;SDS011;9184;54.390;18.620;2023-11-21T00:12:47;14.53;;;7.77;;
18114;SDS011;9184;54.390;18.620;2023-11-21T00:13:18;12.37;;;7.03;;
18114;SDS011;9184;54.390;18.620;2023-11-21T00:13:49;14.20;;;8.20;;
18114;SDS011;9184;54.390;18.620;2023-11-21T00:14:20;12.93;;;7.57;;
18114;SDS011;9184;54.390;18.620;2023-11-21T00:14:51;16.07;;;8.30;;
18114;SDS011;9184;54.390;18.620;2023-11-21T00:15:21;11.80;;;7.57;;
18114;SDS011;9184;54.390;18.620;2023-11-21T00:15:53;11.60;;;7.57;;
18114;SDS011;9184;54.390;18.620;2023-11-21T00:16:24;14.23;;;7.80;;
18114;SDS011;9184;54.390;18.620;2023-11-21T00:16:55;14.03;;;8.00;;
18114;SDS011;9184;54.390;18.620;2023-11-21T00:17:26;16.40;;;7.83;;
18114;SDS011;9184;54.390;18.620;2023-11-21T00:17:56;10.37;;;7.37;;
18114;SDS011;9184;54.390;18.620;2023-11-21T00:18:27;13.27;;;7.97;;
18114;SDS011;9184;54.390;18.620;2023-11-21T00:18:58;11.13;;;7.77;;
18114;SDS011;9184;54.390;18.620;2023-11-21T00:19:29;13.57;;;7.13;;
18114;SDS011;9184;54.390;18.620;2023-11-21T00:19:59;11.87;;;7.70;;
18114;SDS011;9184;54.390;18.620;2023-11-21T00:20:30;12.37;;;7.23;;
18114;SDS011;9184;54.390;18.620;2023-11-21T00:21:00;11.37;;;7.33;;
18114;SDS011;9184;54.390;18.620;2023-11-21T00:21:32;12.13;;;7.13;;
18114;SDS011;9184;54.390;18.620;2023-11-21T00:22:02;12.20;;;7.67;;
18114;SDS011;9184;54.390;18.620;2023-11-21T00:22:33;15.53;;;9.40;;
18114;SDS011;9184;54.390;18.620;2023-11-21T00:23:04;13.33;;;8.60;;
18114;SDS011;9184;54.390;18.620;2023-11-21T00:23:35;15.60;;;8.47;;
18114;SDS011;9184;54.390;18.620;2023-11-21T00:24:06;14.27;;;8.60;;
18114;SDS011;9184;54.390;18.620;2023-11-21T00:24:37;15.53;;;8.53;;
18114;SDS011;9184;54.390;18.620;2023-11-21T00:25:08;11.97;;;8.03;;
18114;SDS011;9184;54.390;18.620;2023-11-21T00:25:40;15.80;;;8.47;;
18114;SDS011;9184;54.390;18.620;2023-11-21T00:26:10;13.47;;;8.40;;
18114;SDS011;9184;54.390;18.620;2023-11-21T00:26:41;13.17;;;8.13;;
18114;SDS011;9184;54.390;18.620;2023-11-21T00:27:12;11.57;;;7.73;;
18114;SDS011;9184;54.390;18.620;2023-11-21T00:27:43;10.77;;;7.63;;
18114;SDS011;9184;54.390;18.620;2023-11-21T00:28:13;9.80;;;6.77;;
18114;SDS011;9184;54.390;18.620;2023-11-21T00:28:44;12.63;;;8.30;;
18114;SDS011;9184;54.390;18.620;2023-11-21T00:29:15;14.03;;;8.03;;
18114;SDS011;9184;54.390;18.620;2023-11-21T00:29:47;11.70;;;7.43;;
18114;SDS011;9184;54.390;18.620;2023-11-21T00:30:18;13.70;;;8.60;;
18114;SDS011;9184;54.390;18.620;2023-11-21T00:30:50;11.53;;;7.83;;
18114;SDS011;9184;54.390;18.620;2023-11-21T00:31:23;12.30;;;7.70;;
18114;SDS011;9184;54.390;18.620;2023-11-21T00:31:53;10.70;;;7.27;;
18114;SDS011;9184;54.390;18.620;2023-11-21T00:32:24;12.27;;;7.97;;
18114;SDS011;9184;54.390;18.620;2023-11-21T00:32:54;12.77;;;7.23;;
18114;SDS011;9184;54.390;18.620;2023-11-21T00:33:25;11.70;;;7.10;;
18114;SDS011;9184;54.390;18.620;2023-11-21T00:33:56;10.97;;;7.47;;
18114;SDS011;9184;54.390;18.620;2023-11-21T00:34:27;11.73;;;7.20;;
18114;SDS011;9184;54.390;18.620;2023-11-21T00:34:57;15.20;;;7.97;;
18114;SDS011;9184;54.390;18.620;2023-11-21T00:35:28;15.67;;;7.93;;
18114;SDS011;9184;54.390;18.620;2023-11-21T00:35:59;10.87;;;7.33;;
18114;SDS011;9184;54.390;18.620;2023-11-21T00:36:30;12.07;;;8.20;;
18114;SDS011;9184;54.390;18.620;2023-11-21T00:37:01;13.43;;;7.77;;
18114;SDS011;9184;54.390;18.620;2023-11-21T00:37:33;14.80;;;8.40;;
18114;SDS011;9184;54.390;18.620;2023-11-21T00:38:04;14.10;;;8.20;;
18114;SDS011;9184;54.390;18.620;2023-11-21T00:38:35;12.83;;;7.80;;
18114;SDS011;9184;54.390;18.620;2023-11-21T00:39:05;13.90;;;8.07;;
18114;SDS011;9184;54.390;18.620;2023-11-21T00:39:36;10.63;;;7.90;;
18114;SDS011;9184;54.390;18.620;2023-11-21T00:40:08;16.80;;;8.43;;
18114;SDS011;9184;54.390;18.620;2023-11-21T00:40:39;14.53;;;7.73;;
18114;SDS011;9184;54.390;18.620;2023-11-21T00:41:09;12.20;;;8.50;;
18114;SDS011;9184;54.390;18.620;2023-11-21T00:41:40;10.60;;;7.20;;
18114;SDS011;9184;54.390;18.620;2023-11-21T00:42:12;12.43;;;7.43;;
18114;SDS011;9184;54.390;18.620;2023-11-21T00:42:42;14.07;;;8.80;;
18114;SDS011;9184;54.390;18.620;2023-11-21T00:43:14;15.60;;;7.83;;
18114;SDS011;9184;54.390;18.620;2023-11-21T00:43:45;13.50;;;8.50;;
18114;SDS011;9184;54.390;18.620;2023-11-21T00:44:16;12.77;;;7.93;;
18114;SDS011;9184;54.390;18.620;2023-11-21T00:44:46;14.90;;;8.53;;
18114;SDS011;9184;54.390;18.620;2023-11-21T00:45:17;11.57;;;6.90;;
18114;SDS011;9184;54.390;18.620;2023-11-21T00:45:48;13.20;;;7.90;;
18114;SDS011;9184;54.390;18.620;2023-11-21T00:46:19;14.63;;;8.10;;
18114;SDS011;9184;54.390;18.620;2023-11-21T00:46:51;13.27;;;8.33;;
18114;SDS011;9184;54.390;18.620;2023-11-21T00:47:21;12.23;;;8.13;;
18114;SDS011;9184;54.390;18.620;2023-11-21T00:47:53;12.20;;;8.50;;
18114;SDS011;9184;54.390;18.620;2023-11-21T00:48:24;10.50;;;6.93;;
18114;SDS011;9184;54.390;18.620;2023-11-21T00:48:55;14.07;;;8.00;;
18114;SDS011;9184;54.390;18.620;2023-11-21T00:49:25;11.80;;;7.80;;
18114;SDS011;9184;54.390;18.620;2023-11-21T00:49:55;11.93;;;7.13;;
18114;SDS011;9184;54.390;18.620;2023-11-21T00:50:27;13.67;;;6.77;;
18114;SDS011;9184;54.390;18.620;2023-11-21T00:50:57;12.93;;;8.00;;
18114;SDS011;9184;54.390;18.620;2023-11-21T00:51:28;10.93;;;7.67;;
18114;SDS011;9184;54.390;18.620;2023-11-21T00:51:58;13.37;;;7.77;;
18114;SDS011;9184;54.390;18.620;2023-11-21T00:52:30;15.73;;;8.20;;
18114;SDS011;9184;54.390;18.620;2023-11-21T00:53:00;11.30;;;7.57;;
18114;SDS011;9184;54.390;18.620;2023-11-21T00:53:32;13.60;;;7.63;;
18114;SDS011;9184;54.390;18.620;2023-11-21T00:54:02;12.00;;;7.83;;
18114;SDS011;9184;54.390;18.620;2023-11-21T00:54:34;14.00;;;8.10;;
18114;SDS011;9184;54.390;18.620;2023-11-21T00:55:04;12.63;;;8.00;;
18114;SDS011;9184;54.390;18.620;2023-11-21T00:55:37;14.27;;;7.80;;
18114;SDS011;9184;54.390;18.620;2023-11-21T00:56:10;12.53;;;7.93;;
18114;SDS011;9184;54.390;18.620;2023-11-21T00:56:40;13.90;;;7.90;;
18114;SDS011;9184;54.390;18.620;2023-11-21T00:57:11;14.13;;;7.90;;
18114;SDS011;9184;54.390;18.620;2023-11-21T00:57:42;13.33;;;7.73;;
18114;SDS011;9184;54.390;18.620;2023-11-21T00:58:13;15.03;;;9.20;;
18114;SDS011;9184;54.390;18.620;2023-11-21T00:58:43;13.37;;;8.53;;
18114;SDS011;9184;54.390;18.620;2023-11-21T00:59:16;11.40;;;7.60;;
18114;SDS011;9184;54.390;18.620;2023-11-21T00:59:47;17.23;;;8.57;;
18114;SDS011;9184;54.390;18.620;2023-11-21T01:00:18;13.73;;;7.10;;
18114;SDS011;9184;54.390;18.620;2023-11-21T01:00:49;13.30;;;7.83;;
18114;SDS011;9184;54.390;18.620;2023-11-21T01:01:19;13.30;;;7.77;;
18114;SDS011;9184;54.390;18.620;2023-11-21T01:01:51;12.77;;;7.97;;
18114;SDS011;9184;54.390;18.620;2023-11-21T01:02:24;11.03;;;7.60;;
18114;SDS011;9184;54.390;18.620;2023-11-21T01:02:55;14.07;;;8.60;;
18114;SDS011;9184;54.390;18.620;2023-11-21T01:03:26;12.53;;;7.43;;
18114;SDS011;9184;54.390;18.620;2023-11-21T01:03:56;12.37;;;7.73;;
18114;SDS011;9184;54.390;18.620;2023-11-21T01:04:28;12.77;;;7.80;;
18114;SDS011;9184;54.390;18.620;2023-11-21T01:04:58;14.20;;;8.47;;
18114;SDS011;9184;54.390;18.620;2023-11-21T01:05:29;12.10;;;8.63;;
18114;SDS011;9184;54.390;18.620;2023-11-21T01:05:59;12.77;;;7.80;;
18114;SDS011;9184;54.390;18.620;2023-11-21T01:06:31;9.80;;;7.03;;
18114;SDS011;9184;54.390;18.620;2023-11-21T01:07:01;13.87;;;8.53;;
18114;SDS011;9184;54.390;18.620;2023-11-21T01:07:32;16.07;;;8.57;;
18114;SDS011;9184;54.390;18.620;2023-11-21T01:08:06;12.40;;;8.50;;
18114;SDS011;9184;54.390;18.620;2023-11-21T01:08:37;11.83;;;6.77;;
18114;SDS011;9184;54.390;18.620;2023-11-21T01:09:07;14.20;;;7.83;;
18114;SDS011;9184;54.390;18.620;2023-11-21T01:09:38;11.47;;;7.43;;
18114;SDS011;9184;54.390;18.620;2023-11-21T01:10:10;13.17;;;7.50;;
18114;SDS011;9184;54.390;18.620;2023-11-21T01:10:40;15.17;;;8.47;;
18114;SDS011;9184;54.390;18.620;2023-11-21T01:11:11;16.40;;;8.03;;
18114;SDS011;9184;54.390;18.620;2023-11-21T01:11:42;13.40;;;7.67;;
18114;SDS011;9184;54.390;18.620;2023-11-21T01:12:13;11.50;;;7.47;;
18114;SDS011;9184;54.390;18.620;2023-11-21T01:12:44;12.57;;;7.70;;
18114;SDS011;9184;54.390;18.620;2023-11-21T01:13:14;15.87;;;8.43;;
18114;SDS011;9184;54.390;18.620;2023-11-21T01:13:45;15.13;;;8.43;;
18114;SDS011;9184;54.390;18.620;2023-11-21T01:14:16;14.40;;;7.90;;
18114;SDS011;9184;54.390;18.620;2023-11-21T01:14:47;13.30;;;8.10;;
18114;SDS011;9184;54.390;18.620;2023-11-21T01:15:18;12.23;;;6.97;;
18114;SDS011;9184;54.390;18.620;2023-11-21T01:15:48;14.50;;;7.50;;
18114;SDS011;9184;54.390;18.620;2023-11-21T01:16:19;16.23;;;8.27;;
18114;SDS011;9184;54.390;18.620;2023-11-21T01:16:52;16.97;;;8.03;;
18114;SDS011;9184;54.390;18.620;2023-11-21T01:17:22;13.80;;;7.63;;
18114;SDS011;9184;54.390;18.620;2023-11-21T01:17:53;14.87;;;8.83;;
18114;SDS011;9184;54.390;18.620;2023-11-21T01:18:23;15.00;;;7.90;;
18114;SDS011;9184;54.390;18.620;2023-11-21T01:18:55;14.57;;;8.17;;
18114;SDS011;9184;54.390;18.620;2023-11-21T01:19:27;13.63;;;8.27;;
18114;SDS011;9184;54.390;18.620;2023-11-21T01:19:58;10.37;;;7.63;;
18114;SDS011;9184;54.390;18.620;2023-11-21T01:20:29;12.30;;;7.50;;
18114;SDS011;9184;54.390;18.620;2023-11-21T01:20:59;13.17;;;8.00;;
18114;SDS011;9184;54.390;18.620;2023-11-21T01:21:31;13.80;;;7.87;;
18114;SDS011;9184;54.390;18.620;2023-11-21T01:22:01;14.77;;;7.60;;
18114;SDS011;9184;54.390;18.620;2023-11-21T01:22:32;10.57;;;7.13;;
18114;SDS011;9184;54.390;18.620;2023-11-21T01:23:03;17.47;;;7.57;;
18114;SDS011;9184;54.390;18.620;2023-11-21T01:23:34;13.13;;;7.87;;
18114;SDS011;9184;54.390;18.620;2023-11-21T01:24:05;12.07;;;7.37;;
18114;SDS011;9184;54.390;18.620;2023-11-21T01:24:37;13.67;;;7.97;;
18114;SDS011;9184;54.390;18.620;2023-11-21T01:25:07;14.10;;;8.57;;
18114;SDS011;9184;54.390;18.620;2023-11-21T01:25:38;14.97;;;8.33;;
18114;SDS011;9184;54.390;18.620;2023-11-21T01:26:10;11.73;;;7.60;;
18114;SDS011;9184;54.390;18.620;2023-11-21T01:26:40;13.97;;;8.23;;
18114;SDS011;9184;54.390;18.620;2023-11-21T01:27:11;12.57;;;7.63;;
18114;SDS011;9184;54.390;18.620;2023-11-21T01:27:41;17.80;;;8.17;;
18114;SDS011;9184;54.390;18.620;2023-11-21T01:28:13;11.27;;;7.67;;
18114;SDS011;9184;54.390;18.620;2023-11-21T01:28:43;12.97;;;7.80;;
18114;SDS011;9184;54.390;18.620;2023-11-21T01:29:13;13.93;;;7.43;;
18114;SDS011;9184;54.390;18.620;2023-11-21T01:29:45;12.57;;;7.43;;
18114;SDS011;9184;54.390;18.620;2023-11-21T01:30:15;9.70;;;6.60;;
18114;SDS011;9184;54.390;18.620;2023-11-21T01:30:47;16.60;;;7.30;;
18114;SDS011;9184;54.390;18.620;2023-11-21T01:31:17;10.90;;;6.57;;
18114;SDS011;9184;54.390;18.620;2023-11-21T01:31:48;12.70;;;7.87;;
18114;SDS011;9184;54.390;18.620;2023-11-21T01:32:20;10.40;;;6.73;;
18114;SDS011;9184;54.390;18.620;2023-11-21T01:32:50;11.47;;;7.10;;
18114;SDS011;9184;54.390;18.620;2023-11-21T01:33:22;12.63;;;6.97;;
18114;SDS011;9184;54.390;18.620;2023-11-21T01:33:52;9.37;;;6.70;;
18114;SDS011;9184;54.390;18.620;2023-11-21T01:34:23;9.90;;;6.27;;
18114;SDS011;9184;54.390;18.620;2023-11-21T01:34:53;10.60;;;7.07;;
18114;SDS011;9184;54.390;18.620;2023-11-21T01:35:25;7.80;;;6.37;;
18114;SDS011;9184;54.390;18.620;2023-11-21T01:35:55;11.37;;;7.30;;
18114;SDS011;9184;54.390;18.620;2023-11-21T01:36:29;9.67;;;6.20;;
18114;SDS011;9184;54.390;18.620;2023-11-21T01:37:00;12.87;;;7.03;;
18114;SDS011;9184;54.390;18.620;2023-11-21T01:37:31;10.30;;;7.30;;
18114;SDS011;9184;54.390;18.620;2023-11-21T01:38:02;9.83;;;6.83;;
18114;SDS011;9184;54.390;18.620;2023-11-21T01:38:34;12.30;;;6.93;;
18114;SDS011;9184;54.390;18.620;2023-11-21T01:39:04;12.87;;;7.50;;
18114;SDS011;9184;54.390;18.620;2023-11-21T01:39:38;12.97;;;6.90;;
18114;SDS011;9184;54.390;18.620;2023-11-21T01:40:09;12.30;;;6.83;;
18114;SDS011;9184;54.390;18.620;2023-11-21T01:40:43;9.23;;;6.27;;
18114;SDS011;9184;54.390;18.620;2023-11-21T01:41:14;11.13;;;7.17;;
18114;SDS011;9184;54.390;18.620;2023-11-21T01:41:45;16.73;;;7.03;;
18114;SDS011;9184;54.390;18.620;2023-11-21T01:42:16;11.00;;;6.77;;
18114;SDS011;9184;54.390;18.620;2023-11-21T01:42:46;10.30;;;6.93;;
18114;SDS011;9184;54.390;18.620;2023-11-21T01:43:17;10.50;;;6.57;;
18114;SDS011;9184;54.390;18.620;2023-11-21T01:43:48;7.93;;;6.37;;
18114;SDS011;9184;54.390;18.620;2023-11-21T01:44:19;12.93;;;6.83;;
18114;SDS011;9184;54.390;18.620;2023-11-21T01:44:49;15.20;;;7.67;;
18114;SDS011;9184;54.390;18.620;2023-11-21T01:45:20;11.07;;;7.10;;
18114;SDS011;9184;54.390;18.620;2023-11-21T01:45:51;13.10;;;6.90;;
18114;SDS011;9184;54.390;18.620;2023-11-21T01:46:22;8.83;;;6.40;;
18114;SDS011;9184;54.390;18.620;2023-11-21T01:46:52;11.63;;;6.83;;
18114;SDS011;9184;54.390;18.620;2023-11-21T01:47:25;10.30;;;6.70;;
18114;SDS011;9184;54.390;18.620;2023-11-21T01:47:55;14.23;;;6.93;;
18114;SDS011;9184;54.390;18.620;2023-11-21T01:48:28;11.00;;;6.10;;
18114;SDS011;9184;54.390;18.620;2023-11-21T01:48:58;10.23;;;6.47;;
18114;SDS011;9184;54.390;18.620;2023-11-21T01:49:29;11.27;;;6.93;;
18114;SDS011;9184;54.390;18.620;2023-11-21T01:49:59;11.10;;;6.60;;
18114;SDS011;9184;54.390;18.620;2023-11-21T01:50:31;10.30;;;6.20;;
18114;SDS011;9184;54.390;18.620;2023-11-21T01:51:01;11.83;;;7.23;;
18114;SDS011;9184;54.390;18.620;2023-11-21T01:51:32;9.80;;;6.43;;
18114;SDS011;9184;54.390;18.620;2023-11-21T01:52:04;12.83;;;6.33;;
18114;SDS011;9184;54.390;18.620;2023-11-21T01:52:35;8.93;;;6.17;;
18114;SDS011;9184;54.390;18.620;2023-11-21T01:53:06;9.60;;;6.27;;
18114;SDS011;9184;54.390;18.620;2023-11-21T01:53:36;11.83;;;6.83;;
18114;SDS011;9184;54.390;18.620;2023-11-21T01:54:08;12.37;;;6.73;;
18114;SDS011;9184;54.390;18.620;2023-11-21T01:54:38;11.83;;;6.40;;
18114;SDS011;9184;54.390;18.620;2023-11-21T01:55:09;12.17;;;7.33;;
18114;SDS011;9184;54.390;18.620;2023-11-21T01:55:40;13.20;;;6.67;;
18114;SDS011;9184;54.390;18.620;2023-11-21T01:56:14;13.70;;;7.07;;
18114;SDS011;9184;54.390;18.620;2023-11-21T01:56:44;13.23;;;6.60;;
18114;SDS011;9184;54.390;18.620;2023-11-21T01:57:15;11.27;;;6.23;;
18114;SDS011;9184;54.390;18.620;2023-11-21T01:57:46;9.80;;;6.60;;
18114;SDS011;9184;54.390;18.620;2023-11-21T01:58:18;12.73;;;6.77;;
18114;SDS011;9184;54.390;18.620;2023-11-21T01:58:48;9.77;;;6.97;;
18114;SDS011;9184;54.390;18.620;2023-11-21T01:59:19;11.40;;;6.93;;
18114;SDS011;9184;54.390;18.620;2023-11-21T01:59:50;13.10;;;7.17;;
18114;SDS011;9184;54.390;18.620;2023-11-21T02:00:24;11.93;;;6.77;;
18114;SDS011;9184;54.390;18.620;2023-11-21T02:00:55;11.50;;;6.00;;
18114;SDS011;9184;54.390;18.620;2023-11-21T02:01:25;11.50;;;6.37;;
18114;SDS011;9184;54.390;18.620;2023-11-21T02:01:56;10.20;;;6.93;;
18114;SDS011;9184;54.390;18.620;2023-11-21T02:02:28;10.23;;;6.47;;
18114;SDS011;9184;54.390;18.620;2023-11-21T02:02:59;14.43;;;7.33;;
18114;SDS011;9184;54.390;18.620;2023-11-21T02:03:30;13.17;;;6.77;;
18114;SDS011;9184;54.390;18.620;2023-11-21T02:04:01;8.87;;;6.80;;
18114;SDS011;9184;54.390;18.620;2023-11-21T02:04:33;10.23;;;6.47;;
18114;SDS011;9184;54.390;18.620;2023-11-21T02:05:04;11.67;;;7.20;;
18114;SDS011;9184;54.390;18.620;2023-11-21T02:05:38;11.80;;;6.57;;
18114;SDS011;9184;54.390;18.620;2023-11-21T02:06:09;10.17;;;6.87;;
18114;SDS011;9184;54.390;18.620;2023-11-21T02:06:40;12.43;;;7.77;;
18114;SDS011;9184;54.390;18.620;2023-11-21T02:07:11;12.70;;;7.30;;
18114;SDS011;9184;54.390;18.620;2023-11-21T02:07:41;8.83;;;6.13;;
18114;SDS011;9184;54.390;18.620;2023-11-21T02:08:13;11.93;;;6.70;;
18114;SDS011;9184;54.390;18.620;2023-11-21T02:08:44;9.53;;;6.53;;
18114;SDS011;9184;54.390;18.620;2023-11-21T02:09:18;14.27;;;7.00;;
18114;SDS011;9184;54.390;18.620;2023-11-21T02:09:53;11.83;;;7.47;;
18114;SDS011;9184;54.390;18.620;2023-11-21T02:10:23;15.60;;;7.30;;
18114;SDS011;9184;54.390;18.620;2023-11-21T02:10:55;9.00;;;6.03;;
18114;SDS011;9184;54.390;18.620;2023-11-21T02:11:25;11.00;;;6.93;;
18114;SDS011;9184;54.390;18.620;2023-11-21T02:11:57;14.20;;;7.27;;
18114;SDS011;9184;54.390;18.620;2023-11-21T02:12:28;10.53;;;7.30;;
18114;SDS011;9184;54.390;18.620;2023-11-21T02:13:00;10.67;;;6.70;;
18114;SDS011;9184;54.390;18.620;2023-11-21T02:13:32;9.73;;;6.70;;
18114;SDS011;9184;54.390;18.620;2023-11-21T02:14:03;14.90;;;7.97;;
18114;SDS011;9184;54.390;18.620;2023-11-21T02:14:33;15.27;;;6.87;;
18114;SDS011;9184;54.390;18.620;2023-11-21T02:15:05;13.13;;;6.43;;
18114;SDS011;9184;54.390;18.620;2023-11-21T02:15:39;11.20;;;6.70;;
18114;SDS011;9184;54.390;18.620;2023-11-21T02:16:11;12.50;;;6.77;;
18114;SDS011;9184;54.390;18.620;2023-11-21T02:16:42;10.83;;;7.07;;
18114;SDS011;9184;54.390;18.620;2023-11-21T02:17:16;12.00;;;7.07;;
18114;SDS011;9184;54.390;18.620;2023-11-21T02:17:49;9.97;;;6.53;;
18114;SDS011;9184;54.390;18.620;2023-11-21T02:18:21;11.57;;;6.53;;
18114;SDS011;9184;54.390;18.620;2023-11-21T02:18:52;11.90;;;6.77;;
18114;SDS011;9184;54.390;18.620;2023-11-21T02:19:23;11.43;;;6.87;;
18114;SDS011;9184;54.390;18.620;2023-11-21T02:19:55;14.13;;;7.07;;
18114;SDS011;9184;54.390;18.620;2023-11-21T02:20:26;14.97;;;7.17;;
18114;SDS011;9184;54.390;18.620;2023-11-21T02:20:58;12.83;;;7.37;;
18114;SDS011;9184;54.390;18.620;2023-11-21T02:21:29;12.20;;;7.40;;
18114;SDS011;9184;54.390;18.620;2023-11-21T02:22:00;13.03;;;7.33;;
18114;SDS011;9184;54.390;18.620;2023-11-21T02:22:34;12.63;;;6.77;;
18114;SDS011;9184;54.390;18.620;2023-11-21T02:23:09;11.97;;;7.40;;
18114;SDS011;9184;54.390;18.620;2023-11-21T02:23:43;11.40;;;7.07;;
18114;SDS011;9184;54.390;18.620;2023-11-21T02:24:14;11.00;;;6.63;;
18114;SDS011;9184;54.390;18.620;2023-11-21T02:24:45;8.67;;;6.50;;
18114;SDS011;9184;54.390;18.620;2023-11-21T02:25:17;12.60;;;6.47;;
18114;SDS011;9184;54.390;18.620;2023-11-21T02:25:48;12.30;;;6.17;;
18114;SDS011;9184;54.390;18.620;2023-11-21T02:26:18;11.47;;;7.03;;
18114;SDS011;9184;54.390;18.620;2023-11-21T02:26:50;10.43;;;6.77;;
18114;SDS011;9184;54.390;18.620;2023-11-21T02:27:23;11.53;;;7.17;;
18114;SDS011;9184;54.390;18.620;2023-11-21T02:27:53;11.20;;;6.17;;
18114;SDS011;9184;54.390;18.620;2023-11-21T02:28:25;8.33;;;6.03;;
18114;SDS011;9184;54.390;18.620;2023-11-21T02:28:56;9.67;;;6.43;;
18114;SDS011;9184;54.390;18.620;2023-11-21T02:29:28;12.67;;;6.77;;
18114;SDS011;9184;54.390;18.620;2023-11-21T02:29:58;13.43;;;6.87;;
18114;SDS011;9184;54.390;18.620;2023-11-21T02:30:30;12.93;;;7.37;;
18114;SDS011;9184;54.390;18.620;2023-11-21T02:31:01;11.40;;;7.20;;
18114;SDS011;9184;54.390;18.620;2023-11-21T02:31:34;12.23;;;6.40;;
18114;SDS011;9184;54.390;18.620;2023-11-21T02:32:05;12.20;;;6.63;;
18114;SDS011;9184;54.390;18.620;2023-11-21T02:32:36;11.53;;;7.50;;
18114;SDS011;9184;54.390;18.620;2023-11-21T02:33:06;9.97;;;6.33;;
18114;SDS011;9184;54.390;18.620;2023-11-21T02:33:38;11.93;;;6.10;;
18114;SDS011;9184;54.390;18.620;2023-11-21T02:34:08;9.47;;;5.57;;
18114;SDS011;9184;54.390;18.620;2023-11-21T02:34:39;8.87;;;5.90;;
18114;SDS011;9184;54.390;18.620;2023-11-21T02:35:09;9.10;;;6.33;;
18114;SDS011;9184;54.390;18.620;2023-11-21T02:35:42;11.23;;;6.30;;
18114;SDS011;9184;54.390;18.620;2023-11-21T02:36:13;8.60;;;5.83;;
18114;SDS011;9184;54.390;18.620;2023-11-21T02:36:44;14.50;;;6.87;;
18114;SDS011;9184;54.390;18.620;2023-11-21T02:37:14;10.13;;;6.80;;
18114;SDS011;9184;54.390;18.620;2023-11-21T02:37:46;8.97;;;6.50;;
18114;SDS011;9184;54.390;18.620;2023-11-21T02:38:17;12.10;;;7.07;;
18114;SDS011;9184;54.390;18.620;2023-11-21T02:38:48;10.93;;;6.63;;
18114;SDS011;9184;54.390;18.620;2023-11-21T02:39:18;9.77;;;5.77;;
18114;SDS011;9184;54.390;18.620;2023-11-21T02:39:52;9.17;;;6.20;;
18114;SDS011;9184;54.390;18.620;2023-11-21T02:40:22;10.20;;;6.93;;
18114;SDS011;9184;54.390;18.620;2023-11-21T02:40:56;12.87;;;6.37;;
18114;SDS011;9184;54.390;18.620;2023-11-21T02:41:27;10.20;;;6.33;;
18114;SDS011;9184;54.390;18.620;2023-11-21T02:42:00;9.20;;;6.20;;
18114;SDS011;9184;54.390;18.620;2023-11-21T02:42:30;12.47;;;6.53;;
18114;SDS011;9184;54.390;18.620;2023-11-21T02:43:01;9.70;;;5.97;;
18114;SDS011;9184;54.390;18.620;2023-11-21T02:43:31;9.73;;;6.53;;
18114;SDS011;9184;54.390;18.620;2023-11-21T02:44:03;12.57;;;5.93;;
18114;SDS011;9184;54.390;18.620;2023-11-21T02:44:33;10.20;;;6.63;;
18114;SDS011;9184;54.390;18.620;2023-11-21T02:45:05;8.93;;;5.73;;
18114;SDS011;9184;54.390;18.620;2023-11-21T02:45:36;12.43;;;6.93;;
18114;SDS011;9184;54.390;18.620;2023-11-21T02:46:08;10.90;;;6.37;;
18114;SDS011;9184;54.390;18.620;2023-11-21T02:46:39;10.83;;;6.67;;
18114;SDS011;9184;54.390;18.620;2023-11-21T02:47:10;10.53;;;6.70;;
18114;SDS011;9184;54.390;18.620;2023-11-21T02:47:40;10.53;;;6.60;;
18114;SDS011;9184;54.390;18.620;2023-11-21T02:48:12;10.00;;;6.60;;
18114;SDS011;9184;54.390;18.620;2023-11-21T02:48:42;10.60;;;6.43;;
18114;SDS011;9184;54.390;18.620;2023-11-21T02:49:13;11.60;;;6.73;;
18114;SDS011;9184;54.390;18.620;2023-11-21T02:49:43;10.33;;;6.87;;
18114;SDS011;9184;54.390;18.620;2023-11-21T02:50:14;9.90;;;6.50;;
18114;SDS011;9184;54.390;18.620;2023-11-21T02:50:45;14.37;;;7.03;;
18114;SDS011;9184;54.390;18.620;2023-11-21T02:51:15;14.03;;;6.93;;
18114;SDS011;9184;54.390;18.620;2023-11-21T02:51:46;12.80;;;6.23;;
18114;SDS011;9184;54.390;18.620;2023-11-21T02:52:17;12.57;;;6.83;;
18114;SDS011;9184;54.390;18.620;2023-11-21T02:52:48;9.37;;;6.33;;
18114;SDS011;9184;54.390;18.620;2023-11-21T02:53:20;11.30;;;6.90;;
18114;SDS011;9184;54.390;18.620;2023-11-21T02:53:51;15.37;;;6.33;;
18114;SDS011;9184;54.390;18.620;2023-11-21T02:54:22;15.27;;;6.20;;
18114;SDS011;9184;54.390;18.620;2023-11-21T02:54:53;11.23;;;6.47;;
18114;SDS011;9184;54.390;18.620;2023-11-21T02:55:23;11.97;;;6.17;;
18114;SDS011;9184;54.390;18.620;2023-11-21T02:55:55;13.73;;;7.33;;
18114;SDS011;9184;54.390;18.620;2023-11-21T02:56:26;9.50;;;6.30;;
18114;SDS011;9184;54.390;18.620;2023-11-21T02:56:56;13.00;;;7.20;;
18114;SDS011;9184;54.390;18.620;2023-11-21T02:57:27;10.30;;;6.17;;
18114;SDS011;9184;54.390;18.620;2023-11-21T02:57:57;13.17;;;6.67;;
18114;SDS011;9184;54.390;18.620;2023-11-21T02:58:29;12.07;;;6.43;;
18114;SDS011;9184;54.390;18.620;2023-11-21T02:58:59;12.60;;;7.63;;
18114;SDS011;9184;54.390;18.620;2023-11-21T02:59:30;10.73;;;6.17;;
18114;SDS011;9184;54.390;18.620;2023-11-21T03:00:00;12.93;;;7.17;;
18114;SDS011;9184;54.390;18.620;2023-11-21T03:00:31;14.83;;;6.50;;
18114;SDS011;9184;54.390;18.620;2023-11-21T03:01:03;13.47;;;6.90;;
18114;SDS011;9184;54.390;18.620;2023-11-21T03:01:35;12.40;;;6.97;;
18114;SDS011;9184;54.390;18.620;2023-11-21T03:02:06;12.83;;;6.77;;
18114;SDS011;9184;54.390;18.620;2023-11-21T03:02:38;12.07;;;6.10;;
18114;SDS011;9184;54.390;18.620;2023-11-21T03:03:10;12.93;;;7.10;;
18114;SDS011;9184;54.390;18.620;2023-11-21T03:03:40;12.87;;;6.70;;
18114;SDS011;9184;54.390;18.620;2023-11-21T03:04:11;9.03;;;5.60;;
18114;SDS011;9184;54.390;18.620;2023-11-21T03:04:47;14.10;;;6.87;;
18114;SDS011;9184;54.390;18.620;2023-11-21T03:05:19;11.63;;;6.10;;